Time;durP1;ratioP1;P1;durP2;ratioP2;P2;SDS_P1;SDS_P2;PMS_P1;PMS_P2;Temp;Humidity;BMP_temperature;BMP_pressure;BME280_temperature;BME280_humidity;BME280_pressure;Samples;Min_cycle;Max_cycle;Signal;HPM_P1;HPM_P2
2022/04/22 00:01:40;;;;;;;;;7.50;5.25;;;;;-146.03;100.00;60875.16;6272798;22;45393;-88
2022/04/22 00:04:05;;;;;;;;;6.00;5.75;;;;;-146.03;100.00;60875.16;6272549;22;45325;-89
2022/04/22 00:06:31;;;;;;;;;5.50;5.50;;;;;-146.03;100.00;60875.16;6271238;22;45405;-89
2022/04/22 00:08:56;;;;;;;;;9.75;7.00;;;;;-146.03;100.00;60875.16;6244323;22;45361;-89
2022/04/22 00:11:30;;;;;;;;;7.25;6.50;;;;;-146.03;100.00;60875.16;6272670;22;45264;-89
2022/04/22 00:14:02;;;;;;;;;5.50;5.50;;;;;-146.03;100.00;60875.16;6272285;22;45313;-89
2022/04/22 00:16:30;;;;;;;;;5.75;5.75;;;;;-146.03;100.00;60875.16;6272719;22;45475;-89
2022/04/22 00:18:56;;;;;;;;;5.25;5.25;;;;;-146.03;100.00;60875.16;6245946;22;45320;-89
2022/04/22 00:21:22;;;;;;;;;7.25;7.25;;;;;-146.03;100.00;60875.16;6273584;22;45400;-89
2022/04/22 00:23:49;;;;;;;;;6.00;5.50;;;;;-146.03;100.00;60875.16;6273398;22;45358;-88
2022/04/22 00:26:15;;;;;;;;;6.25;6.25;;;;;-146.03;100.00;60875.16;6273316;22;46006;-89
2022/04/22 00:28:40;;;;;;;;;5.50;5.50;;;;;-146.03;100.00;60875.16;6273711;22;45165;-88
2022/04/22 00:31:05;;;;;;;;;7.00;6.25;;;;;-146.03;100.00;60875.16;6245608;22;52157;-89
2022/04/22 00:33:31;;;;;;;;;6.00;5.00;;;;;-146.03;100.00;60875.16;6273527;22;45575;-88
2022/04/22 00:35:56;;;;;;;;;6.00;6.00;;;;;-146.03;100.00;60875.16;6272930;22;45976;-89
2022/04/22 00:38:21;;;;;;;;;6.50;6.50;;;;;-146.03;100.00;60875.16;6245671;22;45591;-88
2022/04/22 00:40:46;;;;;;;;;4.75;4.75;;;;;-146.03;100.00;60875.16;6273828;22;45204;-88
2022/04/22 00:43:19;;;;;;;;;6.25;6.25;;;;;-146.03;100.00;60875.16;6245492;22;50193;-89
2022/04/22 00:45:45;;;;;;;;;6.75;6.75;;;;;-146.03;100.00;60875.16;6245337;22;47979;-87
2022/04/22 00:48:11;;;;;;;;;6.75;6.25;;;;;-146.03;100.00;60875.16;6273283;22;45281;-89
2022/04/22 00:50:38;;;;;;;;;7.00;6.00;;;;;-146.03;100.00;60875.16;6273350;22;45115;-89
2022/04/22 00:53:04;;;;;;;;;8.75;5.75;;;;;-146.03;100.00;60875.16;6245507;22;45552;-89
2022/04/22 00:55:30;;;;;;;;;6.00;6.00;;;;;-146.03;100.00;60875.16;6244609;22;48461;-89
2022/04/22 00:57:58;;;;;;;;;6.00;6.00;;;;;-146.03;100.00;60875.16;6273474;22;45310;-89
2022/04/22 01:00:23;;;;;;;;;7.50;7.50;;;;;-146.03;100.00;60875.16;6273162;22;45436;-89
2022/04/22 01:02:48;;;;;;;;;8.00;7.00;;;;;-146.03;100.00;60875.16;6271090;22;45346;-88
2022/04/22 01:10:42;;;;;;;;;7.75;7.00;;;;;-146.03;100.00;60875.16;6273811;22;45324;-88
2022/04/22 01:13:08;;;;;;;;;7.25;7.25;;;;;-146.03;100.00;60875.16;6245473;22;45219;-88
2022/04/22 01:15:36;;;;;;;;;9.00;9.00;;;;;-146.03;100.00;60875.16;6272993;22;46398;-89
2022/04/22 01:18:01;;;;;;;;;8.50;8.50;;;;;-146.03;100.00;60875.16;6274767;22;45230;-86
2022/04/22 01:20:26;;;;;;;;;6.50;6.50;;;;;-146.03;100.00;60875.16;6274434;22;45306;-88
2022/04/22 01:22:52;;;;;;;;;7.75;7.75;;;;;-146.03;100.00;60875.16;6274520;22;45357;-88
2022/04/22 01:25:17;;;;;;;;;7.00;7.00;;;;;-146.03;100.00;60875.16;6271195;22;47505;-88
2022/04/22 01:27:46;;;;;;;;;8.00;8.00;;;;;-146.03;100.00;60875.16;6272520;22;45314;-88
2022/04/22 01:30:12;;;;;;;;;8.00;8.00;;;;;-146.03;100.00;60875.16;6273334;22;45330;-88
2022/04/22 01:32:37;;;;;;;;;11.00;10.75;;;;;-146.03;100.00;60875.16;6245095;22;45274;-89
2022/04/22 01:35:03;;;;;;;;;4.00;4.00;;;;;-146.03;100.00;60875.16;6272684;22;46123;-88
2022/04/22 01:37:29;;;;;;;;;7.00;7.00;;;;;-146.03;100.00;60875.16;6273408;22;45474;-88
2022/04/22 01:39:54;;;;;;;;;5.50;5.50;;;;;-146.03;100.00;60875.16;6273532;22;45356;-88
2022/04/22 01:42:20;;;;;;;;;7.75;7.75;;;;;-146.03;100.00;60875.16;6245267;22;45389;-88
2022/04/22 01:44:46;;;;;;;;;9.75;8.00;;;;;-146.03;100.00;60875.16;6273135;22;45266;-89
2022/04/22 01:47:12;;;;;;;;;8.00;7.00;;;;;-146.03;100.00;60875.16;6273059;22;45754;-89
2022/04/22 01:49:37;;;;;;;;;7.25;7.25;;;;;-146.03;100.00;60875.16;6273722;22;45172;-89
2022/04/22 01:52:03;;;;;;;;;8.00;7.00;;;;;-146.03;100.00;60875.16;6273822;22;45284;-88
2022/04/22 01:54:28;;;;;;;;;12.75;9.00;;;;;-146.03;100.00;60875.16;6272161;22;46263;-89
2022/04/22 01:56:53;;;;;;;;;8.50;8.50;;;;;-146.03;100.00;60875.16;6272586;22;48549;-88
2022/04/22 01:59:18;;;;;;;;;10.25;10.25;;;;;-146.03;100.00;60875.16;6245276;22;45531;-88
2022/04/22 02:01:44;;;;;;;;;8.50;8.50;;;;;-146.03;100.00;60875.16;6272909;22;45254;-89
2022/04/22 02:04:09;;;;;;;;;9.75;9.75;;;;;-146.03;100.00;60875.16;6272891;22;46133;-88
2022/04/22 02:06:35;;;;;;;;;6.50;6.50;;;;;-146.03;100.00;60875.16;6272102;22;45318;-89
2022/04/22 02:09:00;;;;;;;;;9.00;9.00;;;;;-146.03;100.00;60875.16;6273208;22;45231;-89
2022/04/22 02:11:25;;;;;;;;;9.00;8.00;;;;;-146.03;100.00;60875.16;6272898;22;45319;-87
2022/04/22 02:13:50;;;;;;;;;9.50;9.50;;;;;-146.03;100.00;60875.16;6272948;22;46083;-88
2022/04/22 02:16:16;;;;;;;;;9.50;9.25;;;;;-146.03;100.00;60875.16;6272068;22;45366;-87
2022/04/22 02:18:42;;;;;;;;;8.00;7.00;;;;;-146.03;100.00;60875.16;6273111;22;45247;-88
2022/04/22 02:21:09;;;;;;;;;10.00;9.00;;;;;-146.03;100.00;60875.16;6273464;22;45349;-87
2022/04/22 02:23:35;;;;;;;;;10.00;10.00;;;;;-146.03;100.00;60875.16;6272920;22;45361;-87
2022/04/22 02:26:02;;;;;;;;;9.50;9.00;;;;;-146.03;100.00;60875.16;6273302;22;45262;-87
2022/04/22 02:28:33;;;;;;;;;8.25;7.25;;;;;-146.03;100.00;60875.16;6273050;22;45191;-87
2022/04/22 02:31:00;;;;;;;;;8.00;8.00;;;;;-146.03;100.00;60875.16;6273093;22;45282;-87
2022/04/22 02:33:25;;;;;;;;;7.75;7.75;;;;;-146.03;100.00;60875.16;6273554;22;45420;-87
2022/04/22 02:35:50;;;;;;;;;9.00;8.50;;;;;-146.03;100.00;60875.16;6244984;22;45871;-88
2022/04/22 02:38:16;;;;;;;;;6.00;6.00;;;;;-146.03;100.00;60875.16;6273045;22;45120;-88
2022/04/22 02:46:09;;;;;;;;;10.25;8.50;;;;;-146.03;100.00;60875.16;6272194;22;45621;-87
2022/04/22 02:48:35;;;;;;;;;11.25;9.75;;;;;-146.03;100.00;60875.16;6273108;22;45391;-88
2022/04/22 02:51:00;;;;;;;;;8.25;8.25;;;;;-146.03;100.00;60875.16;6273316;22;45279;-87
2022/04/22 02:53:25;;;;;;;;;8.00;7.75;;;;;-146.03;100.00;60875.16;6244943;22;56164;-88
2022/04/22 02:55:52;;;;;;;;;8.75;8.75;;;;;-146.03;100.00;60875.16;6272268;22;45244;-86
2022/04/22 02:58:18;;;;;;;;;10.50;10.50;;;;;-146.03;100.00;60875.16;6272877;22;45237;-87
2022/04/22 03:00:44;;;;;;;;;11.00;9.00;;;;;-146.03;100.00;60875.16;6272697;22;45227;-87
2022/04/22 03:03:10;;;;;;;;;9.25;9.25;;;;;-146.03;100.00;60875.16;6273072;22;45554;-87
2022/04/22 03:05:36;;;;;;;;;10.75;10.50;;;;;-146.03;100.00;60875.16;6243841;22;45610;-87
2022/04/22 03:08:01;;;;;;;;;9.50;9.50;;;;;-146.03;100.00;60875.16;6245019;22;45318;-88
2022/04/22 03:10:27;;;;;;;;;10.00;8.75;;;;;-146.03;100.00;60875.16;6245233;22;45414;-88
2022/04/22 03:12:52;;;;;;;;;9.50;9.00;;;;;-146.03;100.00;60875.16;6244883;22;47333;-87
2022/04/22 03:15:18;;;;;;;;;9.00;9.00;;;;;-146.03;100.00;60875.16;6244340;22;45329;-87
2022/04/22 03:17:43;;;;;;;;;10.50;9.25;;;;;-146.03;100.00;60875.16;6244593;22;45349;-87
2022/04/22 03:20:09;;;;;;;;;7.75;7.25;;;;;-146.03;100.00;60875.16;6273041;22;45365;-87
2022/04/22 03:22:36;;;;;;;;;10.00;8.00;;;;;-146.03;100.00;60875.16;6273090;22;46715;-87
2022/04/22 03:25:01;;;;;;;;;12.00;10.75;;;;;-146.03;100.00;60875.16;6244784;22;45265;-87
2022/04/22 03:27:27;;;;;;;;;11.00;11.00;;;;;-146.03;100.00;60875.16;6244399;22;45274;-88
2022/04/22 03:29:52;;;;;;;;;10.50;8.75;;;;;-146.03;100.00;60875.16;6273274;22;45206;-87
2022/04/22 03:32:18;;;;;;;;;9.25;9.25;;;;;-146.03;100.00;60875.16;6273225;22;45397;-88
2022/04/22 03:34:43;;;;;;;;;14.75;13.25;;;;;-146.03;100.00;60875.16;6273360;22;45298;-88
2022/04/22 03:37:08;;;;;;;;;9.50;9.50;;;;;-146.03;100.00;60875.16;6271959;22;45222;-87
2022/04/22 03:39:33;;;;;;;;;9.75;9.75;;;;;-146.03;100.00;60875.16;6272446;22;49860;-88
2022/04/22 03:41:59;;;;;;;;;10.00;10.00;;;;;-146.03;100.00;60875.16;6272937;22;45354;-88
2022/04/22 03:44:25;;;;;;;;;12.50;8.75;;;;;-146.03;100.00;60875.16;6271558;22;45331;-88
2022/04/22 03:46:51;;;;;;;;;9.75;9.75;;;;;-146.03;100.00;60875.16;6244268;22;45302;-88
2022/04/22 03:49:16;;;;;;;;;9.00;9.00;;;;;-146.03;100.00;60875.16;6272772;22;45247;-89
2022/04/22 03:51:43;;;;;;;;;10.00;9.25;;;;;-146.03;100.00;60875.16;6244419;22;55686;-88
2022/04/22 03:54:08;;;;;;;;;8.75;8.50;;;;;-146.03;100.00;60875.16;6272621;22;45293;-88
2022/04/22 03:59:17;;;;;;;;;11.75;11.00;;;;;-146.03;100.00;60875.16;6272664;22;45395;-88
2022/04/22 04:01:44;;;;;;;;;7.75;7.75;;;;;-146.03;100.00;60875.16;6244557;22;47014;-88
2022/04/22 04:04:09;;;;;;;;;8.50;8.50;;;;;-146.03;100.00;60875.16;6272591;22;45350;-89
2022/04/22 04:06:35;;;;;;;;;10.25;9.25;;;;;-146.03;100.00;60875.16;6271035;22;45322;-88
2022/04/22 04:17:09;;;;;;;;;8.25;8.25;;;;;-146.03;100.00;60875.16;6272090;22;45240;-88
2022/04/22 04:25:03;;;;;;;;;8.50;8.50;;;;;-146.03;100.00;60875.16;6273635;22;45249;-89
2022/04/22 04:27:29;;;;;;;;;10.25;10.00;;;;;-146.03;100.00;60875.16;6272573;22;45454;-88
2022/04/22 04:29:54;;;;;;;;;11.25;10.00;;;;;-146.03;100.00;60875.16;6273509;22;45394;-88
2022/04/22 04:32:20;;;;;;;;;10.00;10.00;;;;;-146.03;100.00;60875.16;6245120;22;47543;-89
2022/04/22 04:34:45;;;;;;;;;10.25;9.25;;;;;-146.03;100.00;60875.16;6274009;22;45593;-89
2022/04/22 04:37:12;;;;;;;;;10.75;9.00;;;;;-146.03;100.00;60875.16;6245814;22;45432;-89
2022/04/22 04:39:38;;;;;;;;;11.50;10.25;;;;;-146.03;100.00;60875.16;6273221;22;45371;-89
2022/04/22 04:42:04;;;;;;;;;9.75;9.75;;;;;-146.03;100.00;60875.16;6272921;22;45338;-89
2022/04/22 04:44:29;;;;;;;;;11.25;10.50;;;;;-146.03;100.00;60875.16;6272722;22;45427;-89
2022/04/22 04:46:54;;;;;;;;;11.50;9.00;;;;;-146.03;100.00;60875.16;6272787;22;46169;-88
2022/04/22 04:49:20;;;;;;;;;7.00;7.00;;;;;-146.03;100.00;60875.16;6244819;22;45517;-88
2022/04/22 04:51:46;;;;;;;;;12.50;12.50;;;;;-146.03;100.00;60875.16;6245121;22;46883;-88
2022/04/22 04:54:11;;;;;;;;;9.00;9.00;;;;;-146.03;100.00;60875.16;6273653;22;45454;-89
2022/04/22 04:56:36;;;;;;;;;16.25;12.00;;;;;-146.03;100.00;60875.16;6244577;22;45311;-88
2022/04/22 04:59:02;;;;;;;;;12.00;11.75;;;;;-146.03;100.00;60875.16;6272113;22;45211;-88
2022/04/22 05:01:27;;;;;;;;;11.00;11.00;;;;;-146.03;100.00;60875.16;6272627;22;46042;-88
2022/04/22 05:03:53;;;;;;;;;11.25;11.25;;;;;-146.03;100.00;60875.16;6273218;22;45179;-88
2022/04/22 05:06:19;;;;;;;;;20.75;14.50;;;;;-146.03;100.00;60875.16;6243644;22;53629;-88
2022/04/22 05:08:44;;;;;;;;;9.25;9.25;;;;;-146.03;100.00;60875.16;6271980;22;45354;-88
2022/04/22 05:11:10;;;;;;;;;14.75;13.00;;;;;-146.03;100.00;60875.16;6272200;22;45245;-89
2022/04/22 05:13:35;;;;;;;;;12.50;10.75;;;;;-146.03;100.00;60875.16;6273158;22;45365;-89
2022/04/22 05:16:00;;;;;;;;;11.25;11.00;;;;;-146.03;100.00;60875.16;6244616;22;57505;-88
2022/04/22 05:18:26;;;;;;;;;13.50;10.75;;;;;-146.03;100.00;60875.16;6244439;22;45364;-89
2022/04/22 05:20:51;;;;;;;;;12.50;10.75;;;;;-146.03;100.00;60875.16;6272455;22;45436;-89
2022/04/22 05:23:17;;;;;;;;;14.75;13.50;;;;;-146.03;100.00;60875.16;6245467;22;45416;-89
2022/04/22 05:25:42;;;;;;;;;15.00;13.50;;;;;-146.03;100.00;60875.16;6272758;22;45608;-89
2022/04/22 05:28:08;;;;;;;;;8.50;8.50;;;;;-146.03;100.00;60875.16;6244549;22;45435;-88
2022/04/22 05:33:16;;;;;;;;;15.25;10.25;;;;;-146.03;100.00;60875.16;6272493;22;45338;-88
2022/04/22 05:35:43;;;;;;;;;11.25;11.00;;;;;-146.03;100.00;60875.16;6246681;22;45337;-89
2022/04/22 05:38:09;;;;;;;;;11.50;10.75;;;;;-146.03;100.00;60875.16;6247966;22;45297;-88
2022/04/22 05:40:39;;;;;;;;;11.00;11.00;;;;;-146.03;100.00;60875.16;6274556;22;45633;-88
2022/04/22 05:43:06;;;;;;;;;8.00;8.00;;;;;-146.03;100.00;60875.16;6245902;22;45277;-89
2022/04/22 05:45:32;;;;;;;;;10.75;10.75;;;;;-146.03;100.00;60875.16;6244949;22;45547;-88
2022/04/22 05:47:57;;;;;;;;;12.00;10.00;;;;;-146.03;100.00;60875.16;6244322;22;45472;-88
2022/04/22 05:50:23;;;;;;;;;12.75;12.75;;;;;-146.03;100.00;60875.16;6272061;22;45302;-89
2022/04/22 05:52:50;;;;;;;;;13.25;13.25;;;;;-146.03;100.00;60875.16;6245576;22;45300;-89
2022/04/22 05:55:20;;;;;;;;;12.25;12.25;;;;;-146.03;100.00;60875.16;6244903;22;45756;-88
2022/04/22 05:57:47;;;;;;;;;17.25;11.75;;;;;-146.03;100.00;60875.16;6272995;22;45293;-88
2022/04/22 06:00:18;;;;;;;;;12.00;10.75;;;;;-146.03;100.00;60875.16;6271809;22;46111;-88
2022/04/22 06:02:45;;;;;;;;;13.25;12.25;;;;;-146.03;100.00;60875.16;6271266;22;45608;-88
2022/04/22 06:05:12;;;;;;;;;12.75;12.75;;;;;-146.03;100.00;60875.16;6271404;22;45258;-88
2022/04/22 06:07:38;;;;;;;;;16.50;13.00;;;;;-146.03;100.00;60875.16;6244065;22;45306;-89
2022/04/22 06:12:52;;;;;;;;;13.25;11.50;;;;;-146.03;100.00;60875.16;6272744;22;45231;-89
2022/04/22 06:15:18;;;;;;;;;16.00;13.75;;;;;-146.03;100.00;60875.16;6244356;22;45950;-88
2022/04/22 06:17:43;;;;;;;;;15.00;13.25;;;;;-146.03;100.00;60875.16;6244250;22;45462;-87
2022/04/22 06:20:09;;;;;;;;;13.25;12.00;;;;;-146.03;100.00;60875.16;6272202;22;45817;-87
2022/04/22 06:22:35;;;;;;;;;11.25;10.25;;;;;-146.03;100.00;60875.16;6272729;22;45295;-87
2022/04/22 06:25:00;;;;;;;;;15.25;14.00;;;;;-146.03;100.00;60875.16;6245098;22;45301;-87
2022/04/22 06:27:28;;;;;;;;;16.75;13.50;;;;;-146.03;100.00;60875.16;6272883;22;45473;-87
2022/04/22 06:29:55;;;;;;;;;12.50;12.25;;;;;-146.03;100.00;60875.16;6272779;22;45667;-87
2022/04/22 06:32:22;;;;;;;;;13.25;13.00;;;;;-146.03;100.00;60875.16;6271789;22;45329;-87
2022/04/22 06:34:49;;;;;;;;;12.50;11.00;;;;;-146.03;100.00;60875.16;6273009;22;45301;-87
2022/04/22 06:37:15;;;;;;;;;13.75;13.25;;;;;-146.03;100.00;60875.16;6272401;22;45529;-87
2022/04/22 06:47:54;;;;;;;;;13.75;13.50;;;;;-146.03;100.00;60875.16;6272530;22;45628;-86
2022/04/22 06:50:19;;;;;;;;;14.25;14.25;;;;;-146.03;100.00;60875.16;6244194;22;47288;-86
2022/04/22 06:52:47;;;;;;;;;8.75;8.50;;;;;-146.03;100.00;60875.16;6243871;22;45373;-87
2022/04/22 06:55:17;;;;;;;;;17.00;15.75;;;;;-146.03;100.00;60875.16;6244673;22;45397;-87
2022/04/22 06:57:47;;;;;;;;;13.50;13.50;;;;;-146.03;100.00;60875.16;6272545;22;45380;-86
2022/04/22 07:00:13;;;;;;;;;14.00;12.00;;;;;-146.03;100.00;60875.16;6271913;22;45976;-86
2022/04/22 07:02:39;;;;;;;;;12.50;11.00;;;;;-146.03;100.00;60875.16;6272762;22;45337;-86
2022/04/22 07:05:05;;;;;;;;;12.50;12.50;;;;;-146.03;100.00;60875.16;6271851;22;45410;-86
2022/04/22 07:07:31;;;;;;;;;16.25;13.50;;;;;-146.03;100.00;60875.16;6271761;22;45441;-86
2022/04/22 07:09:57;;;;;;;;;13.25;13.00;;;;;-146.03;100.00;60875.16;6273443;22;47596;-85
2022/04/22 07:12:27;;;;;;;;;11.25;11.00;;;;;-146.03;100.00;60875.16;6274736;22;45249;-86
2022/04/22 07:15:03;;;;;;;;;15.00;13.75;;;;;-146.03;100.00;60875.16;6272344;22;45322;-86
2022/04/22 07:17:40;;;;;;;;;13.25;13.00;;;;;-146.03;100.00;60875.16;6272937;22;45283;-85
2022/04/22 07:20:09;;;;;;;;;12.75;10.50;;;;;-146.03;100.00;60875.16;6272102;22;45626;-85
2022/04/22 07:22:39;;;;;;;;;15.25;15.00;;;;;-146.03;100.00;60875.16;6244605;22;45334;-86
2022/04/22 07:25:06;;;;;;;;;14.50;13.00;;;;;-146.03;100.00;60875.16;6244857;22;45397;-86
2022/04/22 07:27:38;;;;;;;;;15.25;13.75;;;;;-146.03;100.00;60875.16;6244777;22;45279;-86
2022/04/22 07:30:06;;;;;;;;;16.00;14.75;;;;;-146.03;100.00;60875.16;6272382;22;45332;-85
2022/04/22 07:32:33;;;;;;;;;14.25;12.50;;;;;-146.03;100.00;60875.16;6272241;22;45253;-86
2022/04/22 07:34:58;;;;;;;;;14.00;13.00;;;;;-146.03;100.00;60875.16;6271874;22;45242;-86
2022/04/22 07:37:24;;;;;;;;;15.25;15.00;;;;;-146.03;100.00;60875.16;6272975;22;45327;-86
2022/04/22 07:39:50;;;;;;;;;14.00;14.00;;;;;-146.03;100.00;60875.16;6272598;22;45299;-86
2022/04/22 07:42:21;;;;;;;;;14.25;14.25;;;;;-146.03;100.00;60875.16;6272498;22;45304;-86
2022/04/22 07:47:36;;;;;;;;;15.25;14.75;;;;;-146.03;100.00;60875.16;6272720;22;45333;-87
2022/04/22 07:50:06;;;;;;;;;14.50;14.25;;;;;-146.03;100.00;60875.16;6272352;22;45289;-86
2022/04/22 07:52:33;;;;;;;;;19.50;17.50;;;;;-146.03;100.00;60875.16;6244340;22;45965;-86
2022/04/22 07:54:59;;;;;;;;;15.25;14.75;;;;;-146.03;100.00;60875.16;6272578;22;45262;-86
2022/04/22 07:57:24;;;;;;;;;14.75;14.75;;;;;-146.03;100.00;60875.16;6273967;22;45314;-86
2022/04/22 07:59:49;;;;;;;;;11.50;11.50;;;;;-146.03;100.00;60875.16;6274095;22;46039;-86
2022/04/22 08:02:16;;;;;;;;;14.00;14.00;;;;;-146.03;100.00;60875.16;6245810;22;45456;-85
2022/04/22 08:04:41;;;;;;;;;15.75;13.75;;;;;-146.03;100.00;60875.16;6273503;22;45285;-86
2022/04/22 08:07:07;;;;;;;;;12.75;12.75;;;;;-146.03;100.00;60875.16;6273142;22;45265;-86
2022/04/22 08:09:33;;;;;;;;;13.50;12.25;;;;;-146.03;100.00;60875.16;6273543;22;45353;-85
2022/04/22 08:12:00;;;;;;;;;11.75;11.25;;;;;-146.03;100.00;60875.16;6273018;22;45446;-86
2022/04/22 08:14:27;;;;;;;;;14.00;14.00;;;;;-146.03;100.00;60875.16;6273537;22;45296;-85
2022/04/22 08:16:53;;;;;;;;;11.00;11.00;;;;;-146.03;100.00;60875.16;6273811;22;45345;-86
2022/04/22 08:19:19;;;;;;;;;13.75;13.75;;;;;-146.03;100.00;60875.16;6273594;22;45253;-85
2022/04/22 08:21:45;;;;;;;;;13.75;12.75;;;;;-146.03;100.00;60875.16;6273365;22;45200;-86
2022/04/22 08:24:10;;;;;;;;;16.00;13.50;;;;;-146.03;100.00;60875.16;6246206;22;45230;-86
2022/04/22 08:26:36;;;;;;;;;11.75;11.00;;;;;-146.03;100.00;60875.16;6273047;22;45318;-86
2022/04/22 08:29:02;;;;;;;;;13.00;13.00;;;;;-146.03;100.00;60875.16;6273258;22;45340;-86
2022/04/22 08:31:28;;;;;;;;;14.00;13.00;;;;;-146.03;100.00;60875.16;6273700;22;45291;-87
2022/04/22 08:33:56;;;;;;;;;12.50;12.00;;;;;-146.03;100.00;60875.16;6272959;22;45295;-85
2022/04/22 08:36:22;;;;;;;;;15.00;14.25;;;;;-146.03;100.00;60875.16;6272697;22;45403;-86
2022/04/22 08:38:47;;;;;;;;;16.00;13.00;;;;;-146.03;100.00;60875.16;6272631;22;45273;-86
2022/04/22 08:41:14;;;;;;;;;13.25;13.00;;;;;-146.03;100.00;60875.16;6272611;22;45299;-85
2022/04/22 08:43:40;;;;;;;;;12.50;12.00;;;;;-146.03;100.00;60875.16;6273543;22;45380;-85
2022/04/22 08:49:58;;;;;;;;;11.25;11.25;;;;;-146.03;100.00;60875.16;6272826;22;45238;-85
2022/04/22 08:51:40;;;;;;;;;16.25;14.50;;;;;-146.03;100.00;60875.16;6272885;22;45433;-86
2022/04/22 08:54:09;;;;;;;;;10.25;10.25;;;;;-146.03;100.00;60875.16;6245811;22;45465;-85
2022/04/22 08:56:35;;;;;;;;;13.00;13.00;;;;;-146.03;100.00;60875.16;6272106;22;45286;-86
2022/04/22 08:59:01;;;;;;;;;17.00;13.25;;;;;-146.03;100.00;60875.16;6272056;22;45251;-86
2022/04/22 09:01:27;;;;;;;;;14.25;14.25;;;;;-146.03;100.00;60875.16;6272405;22;45329;-84
2022/04/22 09:03:52;;;;;;;;;11.75;11.75;;;;;-146.03;100.00;60875.16;6273322;22;45641;-86
2022/04/22 09:06:20;;;;;;;;;13.25;10.75;;;;;-146.03;100.00;60875.16;6243468;22;45490;-85
2022/04/22 09:08:49;;;;;;;;;12.50;12.50;;;;;-146.03;100.00;60875.16;6272673;22;46140;-85
2022/04/22 09:11:16;;;;;;;;;11.75;11.75;;;;;-146.03;100.00;60875.16;6246032;22;46468;-85
2022/04/22 09:13:41;;;;;;;;;12.25;11.25;;;;;-146.03;100.00;60875.16;6273515;22;45343;-86
2022/04/22 09:16:08;;;;;;;;;11.50;11.50;;;;;-146.03;100.00;60875.16;6272686;22;45527;-89
2022/04/22 09:18:37;;;;;;;;;13.75;12.00;;;;;-146.03;100.00;60875.16;6272831;22;46376;-87
2022/04/22 09:21:06;;;;;;;;;11.00;11.00;;;;;-146.03;100.00;60875.16;6273106;22;45365;-87
2022/04/22 09:23:33;;;;;;;;;12.00;10.75;;;;;-146.03;100.00;60875.16;6272705;22;45543;-87
2022/04/22 09:25:59;;;;;;;;;12.25;12.25;;;;;-146.03;100.00;60875.16;6244046;22;45300;-87
2022/04/22 09:28:25;;;;;;;;;12.50;11.25;;;;;-146.03;100.00;60875.16;6271318;22;46075;-88
2022/04/22 09:31:01;;;;;;;;;11.50;11.50;;;;;-146.03;100.00;60875.16;6271276;22;45290;-87
2022/04/22 09:33:35;;;;;;;;;11.25;11.00;;;;;-146.03;100.00;60875.16;6269431;22;45321;-87
2022/04/22 09:44:52;;;;;;;;;10.75;10.75;;;;;-146.03;100.00;60875.16;6271011;22;45219;-86
2022/04/22 09:47:18;;;;;;;;;8.75;8.50;;;;;-146.03;100.00;60875.16;6271733;22;45386;-86
2022/04/22 09:49:44;;;;;;;;;13.25;10.25;;;;;-146.03;100.00;60875.16;6271970;22;46293;-87
2022/04/22 09:52:09;;;;;;;;;13.75;9.75;;;;;-146.03;100.00;60875.16;6272020;22;45432;-87
2022/04/22 09:54:34;;;;;;;;;12.25;9.00;;;;;-146.03;100.00;60875.16;6244427;22;45292;-87
2022/04/22 09:57:01;;;;;;;;;7.75;7.75;;;;;-146.03;100.00;60875.16;6243611;22;45342;-87
2022/04/22 09:59:32;;;;;;;;;7.25;7.25;;;;;-146.03;100.00;60875.16;6271034;22;45408;-87
2022/04/22 10:02:01;;;;;;;;;8.75;8.75;;;;;-146.03;100.00;60875.16;6242986;22;45889;-87
2022/04/22 10:04:28;;;;;;;;;7.50;6.75;;;;;-146.03;100.00;60875.16;6269666;22;45387;-87
2022/04/22 10:06:54;;;;;;;;;8.50;8.50;;;;;-146.03;100.00;60875.16;6241504;22;45269;-86
2022/04/22 10:09:20;;;;;;;;;6.00;6.00;;;;;-146.03;100.00;60875.16;6242619;22;46501;-86
2022/04/22 10:11:52;;;;;;;;;6.00;6.00;;;;;-146.03;100.00;60875.16;6271627;22;45188;-86
2022/04/22 10:14:33;;;;;;;;;4.50;4.25;;;;;-146.03;100.00;60875.16;6269453;22;45274;-86
2022/04/22 10:17:00;;;;;;;;;9.00;8.25;;;;;-146.03;100.00;60875.16;6271754;22;45329;-86
2022/04/22 10:19:25;;;;;;;;;9.00;7.50;;;;;-146.03;100.00;60875.16;6270974;22;46363;-86
2022/04/22 10:21:52;;;;;;;;;15.25;15.25;;;;;-146.03;100.00;60875.16;6272264;22;45316;-86
2022/04/22 10:24:19;;;;;;;;;8.00;6.25;;;;;-146.03;100.00;60875.16;6272652;22;45175;-86
2022/04/22 10:26:45;;;;;;;;;7.50;6.25;;;;;-146.03;100.00;60875.16;6272690;22;45290;-85
2022/04/22 10:29:12;;;;;;;;;6.75;5.00;;;;;-146.03;100.00;60875.16;6244083;22;47271;-86
2022/04/22 10:31:38;;;;;;;;;7.00;6.00;;;;;-146.03;100.00;60875.16;6272333;22;45459;-86
2022/04/22 10:34:06;;;;;;;;;5.25;5.00;;;;;-146.03;100.00;60875.16;6272408;22;45331;-85
2022/04/22 10:36:32;;;;;;;;;6.00;6.00;;;;;-146.03;100.00;60875.16;6272799;22;45425;-86
2022/04/22 10:38:58;;;;;;;;;6.50;6.50;;;;;-146.03;100.00;60875.16;6271937;22;47063;-85
2022/04/22 10:41:23;;;;;;;;;7.75;6.00;;;;;-146.03;100.00;60875.16;6245092;22;45402;-86
2022/04/22 10:49:37;;;;;;;;;6.00;6.00;;;;;-146.03;100.00;60875.16;6272301;22;45193;-86
2022/04/22 10:52:14;;;;;;;;;7.00;5.75;;;;;-146.03;100.00;60875.16;6245123;22;45402;-86
2022/04/22 10:54:52;;;;;;;;;7.00;7.00;;;;;-146.03;100.00;60875.16;6244533;22;45205;-85
2022/04/22 10:57:21;;;;;;;;;6.25;6.25;;;;;-146.03;100.00;60875.16;6244516;22;45477;-86
2022/04/22 11:00:01;;;;;;;;;7.50;7.50;;;;;-146.03;100.00;60875.16;6245532;22;47421;-86
2022/04/22 11:02:30;;;;;;;;;4.75;4.75;;;;;-146.03;100.00;60875.16;6244954;22;45306;-85
2022/04/22 11:05:25;;;;;;;;;7.00;6.00;;;;;-146.03;100.00;60875.16;6271477;22;45389;-86
2022/04/22 11:07:50;;;;;;;;;6.75;6.75;;;;;-146.03;100.00;60875.16;6263374;22;45657;-85
2022/04/22 11:10:15;;;;;;;;;4.75;3.75;;;;;-146.03;100.00;60875.16;6272781;22;46421;-85
2022/04/22 11:12:52;;;;;;;;;4.75;4.75;;;;;-146.03;100.00;60875.16;6244243;22;45735;-85
2022/04/22 11:15:42;;;;;;;;;7.00;5.50;;;;;-146.03;100.00;60875.16;6272343;22;45424;-85
2022/04/22 11:18:08;;;;;;;;;3.00;2.50;;;;;-146.03;100.00;60875.16;6272552;22;45348;-87
2022/04/22 11:20:37;;;;;;;;;7.00;7.00;;;;;-146.03;100.00;60875.16;6244844;22;47334;-86
2022/04/22 11:23:05;;;;;;;;;9.00;7.00;;;;;-146.03;100.00;60875.16;6272780;22;45253;-86
2022/04/22 11:25:31;;;;;;;;;5.50;5.50;;;;;-146.03;100.00;60875.16;6270110;22;45367;-86
2022/04/22 11:27:58;;;;;;;;;5.25;5.25;;;;;-146.03;100.00;60875.16;6272256;22;45222;-85
2022/04/22 11:30:25;;;;;;;;;7.00;5.00;;;;;-146.03;100.00;60875.16;6272917;22;45321;-85
2022/04/22 11:32:59;;;;;;;;;5.25;5.00;;;;;-146.03;100.00;60875.16;6273472;22;45411;-86
2022/04/22 11:35:33;;;;;;;;;7.75;7.00;;;;;-146.03;100.00;60875.16;6273704;22;45355;-86
2022/04/22 11:38:07;;;;;;;;;5.25;5.25;;;;;-146.03;100.00;60875.16;6246032;22;45471;-86
2022/04/22 11:40:40;;;;;;;;;4.50;4.50;;;;;-146.03;100.00;60875.16;6246052;22;47064;-86
2022/04/22 11:43:14;;;;;;;;;5.25;5.25;;;;;-146.03;100.00;60875.16;6273521;22;45374;-87
2022/04/22 11:45:47;;;;;;;;;6.00;4.25;;;;;-146.03;100.00;60875.16;6273308;22;45381;-86
2022/04/22 11:48:17;;;;;;;;;7.50;6.00;;;;;-146.03;100.00;60875.16;6273936;22;45376;-86
2022/04/22 11:50:45;;;;;;;;;6.00;6.00;;;;;-146.03;100.00;60875.16;6272948;22;46050;-87
2022/04/22 11:53:22;;;;;;;;;6.00;6.00;;;;;-146.03;100.00;60875.16;6273339;22;45323;-86
2022/04/22 11:55:48;;;;;;;;;5.25;4.00;;;;;-146.03;100.00;60875.16;6272885;22;45621;-86
2022/04/22 11:58:24;;;;;;;;;5.00;5.00;;;;;-146.03;100.00;60875.16;6273886;22;45183;-87
2022/04/22 12:06:22;;;;;;;;;6.25;6.25;;;;;-146.03;100.00;60875.16;6271868;22;45241;-86
2022/04/22 12:09:05;;;;;;;;;5.75;5.75;;;;;-146.03;100.00;60875.16;6245407;22;45387;-87